METAR Data
IDs: Format: Raw Decoded Include TAF

Data at: 0157 UTC 25 Mar 2019

KHWD 250154Z 33006KT 10SM CLR 22/06 A3014 RMK AO2 SLP213 T02170056 $
No TAF found for KHWD

KBFL 250154Z 02003KT 10SM CLR 18/07 A3015 RMK AO2 SLP208 T01830072

KBFL 242320Z 2500/2524 23005KT P6SM SKC

KIFP 250135Z AUTO 35007KT 10SM CLR 25/M04 A3008 RMK AO2

KIFP 242320Z 2500/2524 VRB05KT P6SM SKC
  FM251500 34007KT P6SM FEW250
  FM252000 21007KT P6SM SKC